• Join FlightAware (Why Join?)
  • Login
  • US Flag 
04:24AM EDT


 

Airport Tracker/Info


-or-


 

Live Flight TrackerFlight Track Log ✈ N935SS ✈ 18-Apr-2013 ✈ KHPN - KBED

Flight Track Log - Related Links

Times and Time Zones

All times are in EDT time to prevent confusion due to time zone crossing. See the N935SS flight status page for this flight to view local times or setup timezone preferences in your user account.

Time Position Orientation Groundspeed Altitude Reporting Facility
EDT Latitude Longitude Course Direction KTS MPH feet Rate Location/Type
10:04AM 41.0333 -73.7333 56° Northeast 207 238 3,000  Level New York TRACON
10:05AM 41.0667 -73.8000 304° West 246 283 5,400 2,700 Climbing New York TRACON
10:06AM 41.1500 -73.8000 360° North 294 338 8,400 2,280 Climbing New York TRACON
10:08AM 41.2464 -73.5719 61° Northeast 331 381 13,000 1,380 Climbing Boston Center
10:09AM 41.3523 -73.1621 56° Northeast  Level FlightAware Approximate
10:09AM 41.2850 -73.4456 68° East 385 443 13,000  Level Boston Center
10:10AM 41.3406 -73.2972 63° Northeast 404 465 13,000  Level Boston Center
10:11AM 41.3936 -73.1678 61° Northeast 399 459 13,000  Level Boston Center
10:12AM 41.4486 -73.0356 61° Northeast 399 459 13,000  Level Boston Center
10:13AM 41.5011 -72.9031 62° Northeast 399 459 13,000  Level Boston Center
10:14AM 41.5558 -72.7703 61° Northeast 399 459 13,000 -180 Level Boston Center
10:15AM 41.6083 -72.6400 62° Northeast 394 453 12,700 -900 Descending Boston Center
10:16AM 41.6417 -72.5567 62° Northeast 402 463 11,600 -1,680 Descending Boston Center
10:16AM 41.6708 -72.5233 40° Northeast 394 453 11,100 -900 Descending Boston Center
10:16AM 41.6958 -72.4900 45° Northeast 381 438 11,000 -120 Descending Boston Center
10:17AM 41.7503 -72.4289 40° Northeast 373 429 11,000  Level Boston Center
10:17AM 41.7753 -72.4011 40° Northeast 373 429 11,000  Level Boston Center
10:18AM 41.8294 -72.3425 39° Northeast 367 422 11,000  Level Boston Center
10:18AM 41.8564 -72.3147 38° Northeast 372 428 11,000  Level Boston Center
10:19AM 41.9022 -72.2617 41° Northeast 372 428 11,000 -300 Level Boston Center
10:20AM 41.9561 -72.2000 40° Northeast 379 436 10,700 -720 Descending Boston Center
10:20AM 41.9894 -72.1636 39° Northeast 372 428 10,300 -780 Descending Boston Center
10:21AM 42.0331 -72.1186 37° Northeast 377 434 10,000 -360 Descending Boston Center
10:21AM 42.0622 -72.0822 43° Northeast 372 428 10,000  Level Boston Center
10:22AM 42.1100 -72.0314 38° Northeast 365 420 10,000 -120 Level Boston Center
10:22AM 42.1431 -71.9922 41° Northeast 359 413 9,900 -900 Descending Boston Center
10:23AM 42.1764 -71.9556 39° Northeast 301 346 9,100 -1,440 Descending Boston Center
10:23AM 42.1992 -71.9300 40° Northeast 312 359 8,200 -2,220 Descending Boston Center
10:24AM 42.2842 -71.8367 39° Northeast 301 346 5,400 -1,620 Descending Boston Center
10:25AM 42.3442 -71.7686 40° Northeast 290 334 5,000 -300 Descending Boston Center
10:26AM 42.3856 -71.6953 53° Northeast 267 307 4,800 -1,020 Descending Boston Center
10:27AM 42.4181 -71.5936 67° East 267 307 3,100 -1,200 Descending Boston Center
10:28AM 42.4333 -71.5500 65° Northeast 263 303 3,100 -300 Level KA90
10:29AM 42.4500 -71.4667 75° East 233 268 2,700 -720 Descending KA90
10:30AM 42.4667 -71.4000 71° East 176 203 1,700 -960 Descending KA90
10:31AM 42.4833 -71.3333 71° East 141 162 800 240 Descending KA90
10:33AM 42.4639 -71.1456 98° East 221 254 2,700 300 Climbing Boston Center
10:34AM 42.4406 -71.1094 131° Southeast 173 199 2,000 -780 Descending Boston Center
10:35AM 42.4131 -71.0706 134° Southeast 128 147 1,200 -720 Descending Boston Center
10:36AM 42.3917 -71.0403 134° Southeast 114 131 600 -300 Descending Boston Center
10:37AM 42.3939 -71.0458 298° West 84 97 700 120 Climbing Boston Center
10:38AM 42.4067 -71.0594 322° Northwest 25 29 900 -120 Climbing Boston Center
10:40AM 42.3897 -71.0372 136° Southeast 39 45 500 -60 Descending Boston Center
10:41AM 42.3981 -71.0483 315° West 21 24 800 300 Climbing Boston Center